Time;durP1;ratioP1;P1;durP2;ratioP2;P2;SDS_P1;SDS_P2;PMS_P1;PMS_P2;Temp;Humidity;BMP_temperature;BMP_pressure;BME280_temperature;BME280_humidity;BME280_pressure;Samples;Min_cycle;Max_cycle;Signal;HPM_P1;HPM_P2
2021/07/03 00:00:26;;;;;;;3.97;1.67;;;;;;;19.81;58.43;100980.88;5090121;28;20190;-64
2021/07/03 00:02:51;;;;;;;3.17;1.40;;;;;;;19.82;58.96;100985.28;5090542;28;20202;-64
2021/07/03 00:05:16;;;;;;;1.93;1.40;;;;;;;19.76;58.37;100975.94;5090612;28;20561;-64
2021/07/03 00:07:42;;;;;;;4.30;1.53;;;;;;;19.69;58.66;100981.19;5087739;28;20218;-63
2021/07/03 00:10:08;;;;;;;1.87;1.20;;;;;;;19.67;58.61;100983.72;5070230;28;20210;-64
2021/07/03 00:12:34;;;;;;;3.93;1.83;;;;;;;19.56;58.56;100966.69;5074128;28;20663;-64
2021/07/03 00:15:00;;;;;;;4.40;1.50;;;;;;;19.62;59.00;100973.16;5090628;28;20702;-64
2021/07/03 00:17:25;;;;;;;5.27;1.60;;;;;;;19.23;58.19;100909.88;5089763;28;20522;-64
2021/07/03 00:19:51;;;;;;;2.70;1.20;;;;;;;19.54;57.97;100963.59;5086547;28;20223;-64
2021/07/03 00:22:16;;;;;;;2.60;1.70;;;;;;;19.28;58.11;100910.00;5070079;28;20680;-65
2021/07/03 00:24:43;;;;;;;4.03;1.30;;;;;;;19.71;58.39;100971.00;5075393;28;20182;-64
2021/07/03 00:27:08;;;;;;;4.70;1.40;;;;;;;19.20;57.97;100891.16;5089907;28;20211;-64
2021/07/03 00:29:34;;;;;;;1.87;1.50;;;;;;;19.55;57.98;100957.47;5090171;28;20265;-64
2021/07/03 00:31:59;;;;;;;3.53;1.57;;;;;;;19.73;58.02;100976.94;5090231;28;20179;-64
2021/07/03 00:34:25;;;;;;;2.90;1.53;;;;;;;19.04;57.97;100861.53;5090304;28;20202;-63
2021/07/03 00:36:50;;;;;;;2.80;1.47;;;;;;;19.73;58.01;100978.97;5089428;28;20264;-64
2021/07/03 00:39:16;;;;;;;2.57;1.57;;;;;;;19.71;58.17;100989.94;5090156;28;20304;-64
2021/07/03 00:41:41;;;;;;;2.00;1.20;;;;;;;19.25;58.18;100910.19;5090362;28;20193;-64
2021/07/03 00:44:07;;;;;;;4.10;1.50;;;;;;;19.66;58.30;100977.31;5077401;28;20176;-64
2021/07/03 00:46:32;;;;;;;2.90;1.50;;;;;;;19.65;58.08;100984.19;5070146;28;20262;-64
2021/07/03 00:48:58;;;;;;;3.93;1.80;;;;;;;19.66;58.02;100977.31;5075518;28;20193;-63
2021/07/03 00:51:24;;;;;;;1.60;1.30;;;;;;;19.48;57.99;100946.63;5089483;28;20183;-64
2021/07/03 00:53:49;;;;;;;4.00;1.53;;;;;;;19.43;57.99;100954.94;5090401;28;20171;-64
2021/07/03 00:56:15;;;;;;;6.60;2.00;;;;;;;19.27;57.70;100907.66;5090189;28;20630;-64
2021/07/03 00:58:41;;;;;;;3.43;1.63;;;;;;;19.69;57.89;100973.53;5089602;28;20201;-63
2021/07/03 01:01:06;;;;;;;4.40;1.47;;;;;;;19.21;57.84;100899.13;5088590;28;20652;-64
2021/07/03 01:03:32;;;;;;;6.17;1.70;;;;;;;19.11;58.12;100874.41;5089968;28;20189;-64
2021/07/03 01:05:57;;;;;;;3.40;1.60;;;;;;;18.97;58.27;100880.78;5091667;28;20674;-64
2021/07/03 01:08:23;;;;;;;3.23;1.50;;;;;;;19.60;58.47;100970.06;5084168;28;20194;-64
2021/07/03 01:10:48;;;;;;;2.73;1.50;;;;;;;19.60;58.22;100970.06;5093553;28;20280;-64
2021/07/03 01:13:14;;;;;;;2.87;1.73;;;;;;;19.37;58.35;100931.59;5094168;28;20197;-64
2021/07/03 01:15:39;;;;;;;2.90;1.60;;;;;;;19.39;58.11;100932.66;5093634;28;20204;-64
2021/07/03 01:18:05;;;;;;;2.80;1.73;;;;;;;19.49;57.96;100947.41;5093105;28;20207;-63
2021/07/03 01:20:30;;;;;;;6.93;1.47;;;;;;;19.58;58.41;100964.13;5092937;28;20222;-64
2021/07/03 01:22:56;;;;;;;3.07;1.87;;;;;;;19.58;58.10;100961.31;5093507;28;20190;-64
2021/07/03 01:25:22;;;;;;;3.43;1.90;;;;;;;19.60;58.07;100956.00;5093377;28;20201;-64
2021/07/03 01:28:03;;;;;;;2.40;1.50;;;;;;;19.70;57.76;100952.59;5092822;28;20174;-64
2021/07/03 01:30:29;;;;;;;2.37;1.50;;;;;;;19.71;57.96;100962.56;5092973;28;20269;-64
2021/07/03 01:32:56;;;;;;;4.37;1.70;;;;;;;19.71;58.03;100959.75;5093367;28;20633;-64
2021/07/03 01:35:29;;;;;;;3.30;1.63;;;;;;;19.07;58.02;100854.16;5093046;28;20590;-64
2021/07/03 01:37:55;;;;;;;4.47;1.90;;;;;;;19.72;58.11;100966.16;5092344;28;20202;-64
2021/07/03 01:40:21;;;;;;;3.03;1.70;;;;;;;19.59;57.79;100940.41;5092902;28;20659;-63
2021/07/03 01:42:46;;;;;;;2.90;1.53;;;;;;;19.74;57.83;100958.00;5093081;28;20175;-64
2021/07/03 01:45:12;;;;;;;2.40;1.50;;;;;;;19.53;57.79;100925.47;5093138;28;20176;-64
2021/07/03 01:47:45;;;;;;;3.73;1.60;;;;;;;19.55;57.67;100939.81;5092321;28;20261;-64
2021/07/03 01:50:11;;;;;;;6.43;1.50;;;;;;;19.77;57.76;100973.91;5091301;28;20193;-64
2021/07/03 01:52:37;;;;;;;3.87;1.40;;;;;;;19.46;57.92;100932.28;5091482;28;20185;-64
2021/07/03 01:55:08;;;;;;;3.17;1.73;;;;;;;19.58;58.21;100962.13;5092877;28;20582;-64
2021/07/03 01:57:35;;;;;;;2.17;1.70;;;;;;;19.45;58.49;100941.19;5092360;28;20221;-64
2021/07/03 02:00:03;;;;;;;2.97;1.67;;;;;;;19.65;57.84;100964.53;5091500;28;20178;-64
2021/07/03 02:02:28;;;;;;;3.17;1.63;;;;;;;19.66;58.00;100968.13;5090886;28;20623;-64
2021/07/03 02:04:54;;;;;;;5.60;2.00;;;;;;;19.65;57.56;100969.38;5092936;28;20222;-64
2021/07/03 02:07:19;;;;;;;5.73;1.77;;;;;;;19.02;57.81;100868.88;5091845;28;20720;-64
2021/07/03 02:09:45;;;;;;;4.40;1.87;;;;;;;19.62;57.57;100964.72;5091023;28;20196;-64
2021/07/03 02:12:10;;;;;;;5.47;1.90;;;;;;;19.22;57.61;100908.34;5092288;28;20259;-64
2021/07/03 02:14:35;;;;;;;2.33;1.77;;;;;;;19.69;57.36;100975.56;5092502;28;20199;-64
2021/07/03 02:17:01;;;;;;;5.70;1.73;;;;;;;19.38;57.49;100924.69;5090862;28;20627;-64
2021/07/03 02:19:26;;;;;;;4.43;1.90;;;;;;;19.73;57.44;100988.19;5090409;28;20212;-64
2021/07/03 02:21:52;;;;;;;5.80;1.80;;;;;;;19.70;57.54;100979.94;5092620;28;20195;-64
2021/07/03 02:24:17;;;;;;;5.10;1.60;;;;;;;19.69;57.30;100984.00;5092046;28;20564;-64
2021/07/03 02:26:43;;;;;;;2.27;1.80;;;;;;;19.01;57.42;100882.16;5092300;28;20263;-64
2021/07/03 02:29:09;;;;;;;2.90;1.70;;;;;;;19.60;57.33;100976.44;5090639;28;20191;-64
2021/07/03 02:31:34;;;;;;;6.57;2.03;;;;;;;19.01;57.56;100901.81;5091475;28;20191;-64
2021/07/03 02:34:00;;;;;;;4.60;2.20;;;;;;;19.52;57.64;100982.94;5092038;28;20175;-64
2021/07/03 02:36:26;;;;;;;3.87;2.10;;;;;;;19.55;57.63;100982.00;5088372;28;20188;-63
2021/07/03 02:38:52;;;;;;;6.10;2.23;;;;;;;19.10;57.82;100926.22;5071098;28;20683;-64
2021/07/03 02:41:17;;;;;;;5.83;1.77;;;;;;;19.48;57.65;100983.16;5071492;28;20705;-65
2021/07/03 02:43:43;;;;;;;2.70;1.67;;;;;;;19.43;57.95;100980.22;5081185;28;20194;-64
2021/07/03 02:46:08;;;;;;;2.50;1.70;;;;;;;18.98;58.05;100936.47;5091735;28;20194;-64
2021/07/03 02:48:34;;;;;;;3.17;1.77;;;;;;;19.33;58.07;100996.41;5086991;28;20664;-64
2021/07/03 02:51:00;;;;;;;5.40;2.23;;;;;;;19.35;58.19;100993.91;5071331;28;20183;-64
2021/07/03 02:53:25;;;;;;;3.33;1.70;;;;;;;19.31;58.38;100987.72;5071398;28;20210;-64
2021/07/03 02:55:51;;;;;;;3.57;1.80;;;;;;;18.59;58.24;100875.25;5077658;28;20757;-64
2021/07/03 02:58:16;;;;;;;7.60;2.40;;;;;;;19.29;58.50;100986.66;5070651;28;20605;-63
2021/07/03 03:00:42;;;;;;;5.57;1.83;;;;;;;19.23;58.46;100989.34;5076175;28;20190;-64
2021/07/03 03:03:07;;;;;;;4.47;1.90;;;;;;;19.19;58.47;100991.53;5091598;28;20175;-64
2021/07/03 03:05:33;;;;;;;2.63;1.80;;;;;;;19.17;58.87;100994.06;5091473;28;20178;-64
2021/07/03 03:07:58;;;;;;;3.03;2.00;;;;;;;19.15;58.83;100988.16;5090328;28;20195;-64
2021/07/03 03:10:24;;;;;;;7.10;2.27;;;;;;;19.20;58.90;100997.94;5090964;28;20251;-64
2021/07/03 03:12:49;;;;;;;4.67;2.03;;;;;;;19.29;58.65;100997.88;5091408;28;20187;-64
2021/07/03 03:15:16;;;;;;;3.40;1.97;;;;;;;19.08;58.56;100962.47;5091498;28;20255;-64
2021/07/03 03:17:41;;;;;;;8.43;2.27;;;;;;;19.31;58.70;100995.34;5090738;28;20202;-63
2021/07/03 03:20:09;;;;;;;3.53;1.80;;;;;;;19.29;58.61;100987.41;5089499;28;20235;-64
2021/07/03 03:22:35;;;;;;;3.33;1.80;;;;;;;18.57;58.65;100877.75;5091289;28;20183;-64
2021/07/03 03:25:01;;;;;;;5.00;2.00;;;;;;;19.30;58.95;100986.13;5091315;28;20667;-64
2021/07/03 03:27:27;;;;;;;5.17;2.07;;;;;;;18.84;58.85;100933.66;5090345;28;20772;-64
2021/07/03 03:29:52;;;;;;;3.10;1.93;;;;;;;19.19;58.78;100966.25;5090943;28;20257;-64
2021/07/03 03:32:18;;;;;;;4.10;2.00;;;;;;;19.31;58.87;100995.34;5090663;28;20548;-63
2021/07/03 03:34:43;;;;;;;4.13;1.70;;;;;;;19.17;58.77;100956.75;5091144;28;20235;-64
2021/07/03 03:37:09;;;;;;;7.93;2.13;;;;;;;19.28;58.71;100980.25;5090449;28;20525;-64
2021/07/03 03:39:34;;;;;;;4.43;1.93;;;;;;;19.37;58.93;101008.25;5090807;28;20585;-63
2021/07/03 03:42:00;;;;;;;4.67;2.00;;;;;;;19.04;58.70;100945.78;5089501;28;20179;-64
2021/07/03 03:44:25;;;;;;;4.63;2.10;;;;;;;19.42;58.59;101009.59;5090832;28;20289;-63
2021/07/03 03:46:54;;;;;;;5.40;2.20;;;;;;;19.50;58.57;101017.16;5090402;28;20558;-63
2021/07/03 03:49:20;;;;;;;3.60;2.10;;;;;;;19.53;58.72;101009.81;5090605;28;20217;-63
2021/07/03 03:51:48;;;;;;;4.10;1.97;;;;;;;19.56;58.67;101008.84;5090896;28;20182;-64
2021/07/03 03:54:14;;;;;;;3.57;2.00;;;;;;;19.59;58.39;101007.88;5089418;28;20688;-64
2021/07/03 03:56:39;;;;;;;3.67;2.27;;;;;;;19.57;58.44;100991.50;5090711;28;20182;-64
2021/07/03 03:59:05;;;;;;;8.73;2.77;;;;;;;19.75;58.20;101010.19;5090317;28;20525;-64
2021/07/03 04:01:31;;;;;;;3.70;2.20;;;;;;;19.72;58.37;101020.38;5090546;28;20192;-64
2021/07/03 04:03:56;;;;;;;5.43;2.50;;;;;;;19.65;58.18;100998.25;5090366;28;20175;-65
2021/07/03 04:06:21;;;;;;;4.23;2.10;;;;;;;19.69;58.41;100990.41;5090694;28;20175;-64
2021/07/03 04:08:47;;;;;;;3.97;2.27;;;;;;;19.83;58.33;101011.34;5089730;28;20182;-64
2021/07/03 04:11:12;;;;;;;3.63;2.30;;;;;;;19.92;58.28;101020.47;5090255;28;20183;-64
2021/07/03 04:13:38;;;;;;;4.80;2.30;;;;;;;19.77;58.11;100994.41;5090373;28;20269;-64
2021/07/03 04:16:04;;;;;;;4.17;2.47;;;;;;;19.89;57.96;101001.75;5089285;28;20202;-64
2021/07/03 04:18:29;;;;;;;6.50;2.50;;;;;;;19.97;58.08;101021.81;5089771;28;20210;-65
2021/07/03 04:20:55;;;;;;;6.07;2.20;;;;;;;19.89;58.28;101029.88;5082909;28;20321;-64
2021/07/03 04:23:20;;;;;;;3.83;2.30;;;;;;;19.37;58.33;100949.25;5090209;28;20241;-64
2021/07/03 04:25:46;;;;;;;5.30;2.40;;;;;;;19.72;59.05;101000.69;5075222;28;20632;-64
2021/07/03 04:28:11;;;;;;;8.83;2.60;;;;;;;19.50;58.89;100979.88;5068398;28;20650;-64
2021/07/03 04:30:36;;;;;;;4.73;2.30;;;;;;;19.89;59.06;101029.06;5070028;28;20183;-64
2021/07/03 04:33:02;;;;;;;6.00;1.97;;;;;;;19.96;59.20;101034.34;5089126;28;20214;-64
2021/07/03 04:35:28;;;;;;;2.83;2.30;;;;;;;19.97;59.19;101033.06;5090295;28;20286;-64
2021/07/03 04:37:53;;;;;;;5.27;2.40;;;;;;;20.02;59.47;101047.22;5074562;28;20184;-63
2021/07/03 04:40:19;;;;;;;4.90;2.17;;;;;;;19.52;59.46;100968.91;5070231;28;20180;-64
2021/07/03 04:42:45;;;;;;;3.80;2.30;;;;;;;20.08;59.20;101047.34;5073977;28;20180;-64
2021/07/03 04:45:11;;;;;;;3.40;2.40;;;;;;;19.65;59.14;100983.44;5072890;28;20252;-64
2021/07/03 04:47:37;;;;;;;5.70;2.53;;;;;;;20.14;59.11;101045.38;5087086;28;20190;-63
2021/07/03 04:50:06;;;;;;;4.10;2.30;;;;;;;20.24;58.89;101039.16;5093885;28;20221;-64
2021/07/03 04:52:31;;;;;;;3.70;2.50;;;;;;;20.28;58.60;101041.75;5092745;28;20257;-64
2021/07/03 04:54:58;;;;;;;4.50;2.23;;;;;;;20.37;58.83;101044.47;5090897;28;20615;-64
2021/07/03 04:57:24;;;;;;;6.77;2.50;;;;;;;20.39;58.72;101042.72;5090278;28;20261;-64
2021/07/03 04:59:49;;;;;;;5.17;2.53;;;;;;;20.37;58.84;101044.47;5092672;28;20183;-64
2021/07/03 05:02:15;;;;;;;3.53;2.40;;;;;;;19.95;59.11;100970.91;5076168;28;20679;-64
2021/07/03 05:04:42;;;;;;;5.30;2.57;;;;;;;20.44;58.62;101044.84;5073479;28;20180;-63
2021/07/03 05:07:08;;;;;;;5.23;2.67;;;;;;;20.43;58.61;101042.50;5077423;28;20228;-64
2021/07/03 05:09:33;;;;;;;5.73;2.43;;;;;;;20.41;58.51;101040.16;5077289;28;20673;-64
2021/07/03 05:11:59;;;;;;;5.33;2.33;;;;;;;20.41;58.78;101037.34;5073366;28;20179;-64
2021/07/03 05:14:24;;;;;;;3.37;2.40;;;;;;;20.44;58.63;101044.03;5092663;28;20297;-63
2021/07/03 05:16:50;;;;;;;5.07;2.60;;;;;;;20.27;58.82;101020.53;5093151;28;20333;-64
2021/07/03 05:19:16;;;;;;;4.40;2.30;;;;;;;20.43;58.60;101051.72;5093480;28;20171;-64
2021/07/03 05:21:42;;;;;;;4.17;2.43;;;;;;;20.46;58.49;101056.38;5093719;28;20817;-64
2021/07/03 05:24:08;;;;;;;5.77;3.00;;;;;;;20.50;58.38;101058.97;5092247;28;20221;-64
2021/07/03 05:26:34;;;;;;;4.23;2.40;;;;;;;20.60;58.29;101058.38;5093549;28;20612;-64
2021/07/03 05:29:00;;;;;;;5.23;2.77;;;;;;;20.72;57.95;101067.75;5092766;28;20175;-63
2021/07/03 05:31:26;;;;;;;4.43;2.50;;;;;;;20.73;58.25;101053.16;5085792;28;20187;-64
2021/07/03 05:33:51;;;;;;;4.83;2.53;;;;;;;20.88;57.64;101036.22;5073217;28;20557;-64
2021/07/03 05:36:16;;;;;;;5.50;2.40;;;;;;;21.22;57.58;101053.03;5074407;28;20611;-64
2021/07/03 05:38:46;;;;;;;3.27;2.30;;;;;;;21.41;56.07;101054.28;5091384;28;20266;-64
2021/07/03 05:41:11;;;;;;;4.50;2.90;;;;;;;21.59;56.24;101053.19;5093034;28;20182;-64
2021/07/03 05:43:37;;;;;;;4.10;2.40;;;;;;;21.76;56.55;101054.16;5092969;28;20186;-64
2021/07/03 05:46:04;;;;;;;4.60;2.83;;;;;;;21.91;56.16;101054.81;5092819;28;20183;-64
2021/07/03 05:48:29;;;;;;;3.17;2.50;;;;;;;21.10;55.55;100907.66;5091769;28;20239;-64
2021/07/03 05:50:55;;;;;;;5.37;2.37;;;;;;;22.15;55.26;101050.38;5092187;28;20187;-64
2021/07/03 05:53:21;;;;;;;2.93;2.50;;;;;;;21.88;54.44;100990.91;5092960;28;20198;-64
2021/07/03 05:55:46;;;;;;;3.83;2.40;;;;;;;22.42;54.35;101066.72;5082623;28;20669;-64
2021/07/03 05:58:12;;;;;;;5.10;2.50;;;;;;;22.56;54.18;101056.59;5071674;28;20303;-63
2021/07/03 06:00:37;;;;;;;4.90;2.97;;;;;;;22.69;54.46;101071.03;5071986;28;20187;-63
2021/07/03 06:03:03;;;;;;;4.20;2.60;;;;;;;22.52;53.21;101025.75;5069479;28;20191;-63
2021/07/03 06:05:28;;;;;;;3.87;2.50;;;;;;;22.76;53.01;101054.41;5069855;28;20184;-63
2021/07/03 06:07:54;;;;;;;5.50;2.93;;;;;;;22.93;53.27;101077.84;5071146;28;20193;-63
2021/07/03 06:10:19;;;;;;;6.43;2.80;;;;;;;22.94;52.43;101073.75;5072142;28;20563;-63
2021/07/03 06:12:45;;;;;;;5.30;2.67;;;;;;;23.16;52.97;101067.41;5072937;28;20326;-63
2021/07/03 06:15:11;;;;;;;4.87;3.43;;;;;;;23.37;53.81;101069.56;5070456;28;20239;-63
2021/07/03 06:17:37;;;;;;;5.53;3.17;;;;;;;23.40;51.83;101071.41;5090741;28;20178;-63
2021/07/03 06:20:05;;;;;;;5.03;3.07;;;;;;;23.40;52.30;101077.06;5088964;28;20550;-63
2021/07/03 06:22:30;;;;;;;3.40;3.10;;;;;;;23.01;51.81;101008.25;5089978;28;20194;-63
2021/07/03 06:24:56;;;;;;;5.03;3.40;;;;;;;23.22;52.20;101088.81;5087640;28;20183;-63
2021/07/03 06:27:21;;;;;;;8.27;3.83;;;;;;;23.14;53.52;101089.78;5082286;28;20729;-63
2021/07/03 06:29:47;;;;;;;3.87;3.40;;;;;;;22.90;53.33;101028.00;5078996;28;20191;-63
2021/07/03 06:32:12;;;;;;;6.40;3.47;;;;;;;23.45;52.83;101078.34;5081032;28;20649;-62
2021/07/03 06:34:39;;;;;;;6.43;3.60;;;;;;;23.28;52.75;101057.72;5075405;28;20208;-63
2021/07/03 06:37:05;;;;;;;3.67;3.00;;;;;;;23.14;52.01;101036.06;5087434;28;20187;-63
2021/07/03 06:39:30;;;;;;;4.63;3.37;;;;;;;22.98;52.11;101017.75;5086435;28;20262;-63
2021/07/03 06:41:56;;;;;;;5.07;3.87;;;;;;;23.51;52.32;101076.28;5082035;28;20289;-63
2021/07/03 06:44:22;;;;;;;5.33;4.10;;;;;;;23.85;52.21;101104.13;5084257;28;20616;-63
2021/07/03 06:46:48;;;;;;;5.33;4.03;;;;;;;23.24;51.08;101062.84;5091060;28;20660;-63
2021/07/03 06:49:17;;;;;;;6.63;4.87;;;;;;;23.04;51.39;101055.31;5091488;28;20183;-62
2021/07/03 06:51:42;;;;;;;5.93;5.10;;;;;;;23.38;51.58;101098.66;5082331;28;20274;-63
2021/07/03 06:54:09;;;;;;;5.77;5.20;;;;;;;23.29;52.18;101096.03;5078096;28;20258;-63
2021/07/03 06:56:34;;;;;;;5.60;5.07;;;;;;;23.46;52.04;101111.00;5087937;28;20245;-63
2021/07/03 06:59:00;;;;;;;6.50;5.90;;;;;;;23.55;50.83;101100.22;5080903;28;20184;-63
2021/07/03 07:01:25;;;;;;;6.37;5.10;;;;;;;23.27;51.68;101031.50;5079439;28;20180;-63
2021/07/03 07:03:51;;;;;;;7.73;5.30;;;;;;;23.69;51.22;101109.78;5072505;28;20183;-63
2021/07/03 07:06:16;;;;;;;6.23;5.60;;;;;;;23.23;51.01;101073.38;5082373;28;20176;-63
2021/07/03 07:08:42;;;;;;;6.57;5.60;;;;;;;23.57;51.33;101094.06;5082892;28;20174;-63
2021/07/03 07:11:07;;;;;;;6.27;5.67;;;;;;;23.40;51.96;101079.88;5091170;28;20657;-63
2021/07/03 07:13:33;;;;;;;7.10;6.17;;;;;;;23.53;52.43;101113.31;5085818;28;20207;-63
2021/07/03 07:15:58;;;;;;;9.73;5.90;;;;;;;23.57;52.40;101108.97;5086187;28;20290;-63
2021/07/03 07:18:24;;;;;;;7.13;5.50;;;;;;;23.80;52.16;101106.97;5080934;28;20218;-63
2021/07/03 07:20:49;;;;;;;7.47;5.90;;;;;;;24.01;52.07;101099.81;5085275;28;20252;-63
2021/07/03 07:23:15;;;;;;;7.13;5.70;;;;;;;24.00;51.28;101107.53;5079925;28;20210;-63
2021/07/03 07:25:41;;;;;;;6.07;5.50;;;;;;;23.89;50.66;101099.03;5085852;28;20183;-63
2021/07/03 07:28:07;;;;;;;6.77;6.17;;;;;;;23.65;51.11;101103.59;5077312;28;20183;-62
2021/07/03 07:30:33;;;;;;;7.07;6.30;;;;;;;23.19;50.97;101055.13;5078991;28;20189;-63
2021/07/03 07:32:58;;;;;;;7.50;6.77;;;;;;;23.59;50.33;101100.00;5081916;28;20792;-63
2021/07/03 07:35:24;;;;;;;8.27;6.40;;;;;;;23.77;51.37;101093.84;5075020;28;20256;-62
2021/07/03 07:37:50;;;;;;;7.57;6.80;;;;;;;23.81;50.34;101094.38;5082725;28;20652;-63
2021/07/03 07:40:17;;;;;;;7.43;6.73;;;;;;;23.94;50.38;101089.00;5085212;28;20194;-63
2021/07/03 07:42:42;;;;;;;7.70;6.60;;;;;;;24.07;49.87;101094.94;5076525;28;20270;-63
2021/07/03 07:45:08;;;;;;;9.00;6.90;;;;;;;24.06;50.70;101076.41;5084029;28;20213;-63
2021/07/03 07:47:34;;;;;;;7.90;7.20;;;;;;;24.08;51.34;101073.81;5088467;28;20211;-63
2021/07/03 07:50:00;;;;;;;8.23;6.53;;;;;;;24.34;50.16;101077.16;5082072;28;20618;-63
2021/07/03 07:52:25;;;;;;;11.27;6.03;;;;;;;23.89;48.83;100976.56;5079043;28;20183;-63
2021/07/03 07:54:51;;;;;;;6.47;5.50;;;;;;;24.73;48.98;101078.69;5074939;28;20215;-63
2021/07/03 07:57:20;;;;;;;6.70;5.93;;;;;;;24.54;49.65;101008.88;5084090;28;20186;-63
2021/07/03 07:59:46;;;;;;;6.43;5.67;;;;;;;25.19;49.77;101070.22;5080691;28;20216;-61
2021/07/03 08:02:11;;;;;;;5.43;4.93;;;;;;;25.35;47.25;101074.31;5085003;28;20233;-62
2021/07/03 08:04:37;;;;;;;6.57;4.40;;;;;;;25.41;47.56;101083.56;5079332;28;20183;-62
2021/07/03 08:07:03;;;;;;;4.73;4.33;;;;;;;25.33;46.46;101076.91;5072605;28;20212;-63
2021/07/03 08:09:28;;;;;;;6.27;4.47;;;;;;;25.38;47.52;101070.44;5063945;28;20210;-63
2021/07/03 08:11:54;;;;;;;4.43;3.73;;;;;;;24.98;46.62;101000.22;5084862;28;20583;-63
2021/07/03 08:14:19;;;;;;;7.80;4.30;;;;;;;25.22;47.20;101006.00;5072405;28;20210;-62
2021/07/03 08:16:45;;;;;;;6.60;4.00;;;;;;;25.81;47.49;101077.13;5075994;28;20195;-63
2021/07/03 08:19:10;;;;;;;7.67;4.20;;;;;;;25.94;46.70;101080.94;5084434;28;20183;-63
2021/07/03 08:21:36;;;;;;;4.37;3.23;;;;;;;25.37;46.34;100992.28;5088167;28;20588;-62
2021/07/03 08:24:01;;;;;;;3.83;2.50;;;;;;;25.52;44.47;101075.00;5080884;28;20274;-62
2021/07/03 08:26:27;;;;;;;5.90;3.13;;;;;;;25.24;47.27;101075.09;5083116;28;20182;-62
2021/07/03 08:28:52;;;;;;;4.73;2.93;;;;;;;24.40;45.48;101013.53;5080439;28;20269;-62
2021/07/03 08:31:18;;;;;;;9.93;3.90;;;;;;;24.42;46.40;101059.09;5084335;28;20183;-62
2021/07/03 08:33:43;;;;;;;8.73;3.37;;;;;;;24.05;47.46;101035.97;5081554;28;20187;-62
2021/07/03 08:36:09;;;;;;;5.43;3.20;;;;;;;24.41;48.42;101087.97;5081168;28;20228;-62
2021/07/03 08:38:34;;;;;;;5.50;3.80;;;;;;;25.07;47.13;101079.34;5081228;28;20270;-63
2021/07/03 08:41:00;;;;;;;3.83;3.53;;;;;;;25.56;46.92;101084.78;5073909;28;20270;-62
2021/07/03 08:43:26;;;;;;;5.77;4.10;;;;;;;25.89;45.61;101080.97;5081455;28;20181;-63
2021/07/03 08:45:59;;;;;;;5.27;3.90;;;;;;;25.99;45.28;101082.97;5083741;28;20244;-62
2021/07/03 08:48:25;;;;;;;4.00;3.60;;;;;;;25.72;43.97;101021.44;5076664;28;20237;-62
2021/07/03 08:50:50;;;;;;;6.03;3.87;;;;;;;25.66;44.05;101015.06;5081180;28;20267;-62
2021/07/03 08:53:16;;;;;;;6.57;4.23;;;;;;;26.34;44.41;101096.34;5084125;28;20263;-63
2021/07/03 08:55:42;;;;;;;4.13;3.73;;;;;;;26.03;43.35;101096.88;5082660;28;20692;-63
2021/07/03 08:58:09;;;;;;;7.30;4.10;;;;;;;25.98;43.41;101095.63;5080544;28;20561;-63
2021/07/03 09:00:46;;;;;;;5.53;4.20;;;;;;;26.02;44.35;101104.63;5088762;28;20745;-63
2021/07/03 09:03:19;;;;;;;7.07;3.67;;;;;;;26.03;43.31;101096.88;5087906;28;20182;-62
2021/07/03 09:05:54;;;;;;;4.63;3.67;;;;;;;25.97;43.59;101104.66;5081696;28;20175;-63
2021/07/03 09:08:22;;;;;;;5.77;4.00;;;;;;;26.25;43.45;101088.19;5084790;28;20208;-63
2021/07/03 09:10:48;;;;;;;9.50;3.97;;;;;;;25.78;43.93;101089.53;5075433;28;20673;-63
2021/07/03 09:13:14;;;;;;;8.27;3.97;;;;;;;25.88;44.52;101099.28;5082141;28;20258;-63
2021/07/03 09:15:42;;;;;;;7.70;3.90;;;;;;;25.49;43.08;101022.91;5083286;28;20432;-63
2021/07/03 09:18:11;;;;;;;5.90;3.10;;;;;;;26.10;43.05;101099.16;5074763;28;20218;-63
2021/07/03 09:20:51;;;;;;;7.43;3.20;;;;;;;25.69;44.07;101067.16;5074791;28;20227;-63
2021/07/03 09:23:21;;;;;;;3.60;3.00;;;;;;;25.93;44.00;101096.44;5086671;28;20577;-62
2021/07/03 09:25:52;;;;;;;5.73;3.07;;;;;;;25.87;43.29;101070.13;5090618;28;20175;-63
2021/07/03 09:28:23;;;;;;;4.20;3.00;;;;;;;25.65;43.14;101061.00;5086521;28;20699;-63
2021/07/03 09:30:51;;;;;;;9.40;2.90;;;;;;;25.77;42.35;101093.66;5088750;28;20179;-63
2021/07/03 09:33:37;;;;;;;6.07;2.97;;;;;;;25.77;43.52;101090.84;5079697;28;20183;-63
2021/07/03 09:36:12;;;;;;;4.10;2.60;;;;;;;25.69;44.81;101076.44;5087801;28;20195;-65
2021/07/03 09:38:42;;;;;;;4.27;2.70;;;;;;;25.90;43.34;101088.94;5073886;28;20240;-65
2021/07/03 09:41:39;;;;;;;3.63;2.30;;;;;;;25.67;43.79;101081.09;5083720;28;20175;-65
2021/07/03 09:44:10;;;;;;;3.80;2.20;;;;;;;25.41;43.81;101092.88;5085580;28;20207;-64
2021/07/03 09:46:47;;;;;;;4.77;2.60;;;;;;;24.59;45.02;100989.06;5086380;28;20212;-64
2021/07/03 09:49:18;;;;;;;4.60;2.30;;;;;;;25.27;44.66;101079.78;5075957;28;20256;-65
2021/07/03 09:51:50;;;;;;;4.83;2.30;;;;;;;25.38;43.45;101085.38;5077742;28;20204;-64
2021/07/03 09:54:18;;;;;;;3.37;2.10;;;;;;;25.52;43.76;101089.19;5082786;28;20680;-65
2021/07/03 09:56:44;;;;;;;4.20;1.70;;;;;;;25.62;43.40;101087.56;5082578;28;20194;-64
2021/07/03 09:59:10;;;;;;;3.13;2.03;;;;;;;25.66;43.99;101068.97;5077681;28;20266;-65
2021/07/03 10:01:45;;;;;;;1.97;1.77;;;;;;;25.79;43.99;101057.03;5079499;28;20270;-65
2021/07/03 10:04:11;;;;;;;4.27;2.20;;;;;;;25.63;44.56;101030.28;5072926;28;20197;-64
2021/07/03 10:06:51;;;;;;;3.30;2.10;;;;;;;25.86;43.41;101070.66;5085635;28;20187;-64
2021/07/03 10:09:25;;;;;;;4.60;2.00;;;;;;;25.56;43.97;101030.09;5076787;28;20195;-65
2021/07/03 10:11:55;;;;;;;2.63;1.57;;;;;;;26.03;44.34;101077.78;5078689;28;20195;-64
2021/07/03 10:14:21;;;;;;;3.67;1.70;;;;;;;26.05;44.08;101057.38;5084784;28;20178;-64
2021/07/03 10:16:47;;;;;;;3.73;1.80;;;;;;;25.42;43.27;100951.75;5075372;28;20175;-64
2021/07/03 10:19:14;;;;;;;6.83;1.83;;;;;;;26.09;43.59;101069.19;5078482;28;20684;-64
2021/07/03 10:21:49;;;;;;;4.90;2.00;;;;;;;25.46;43.86;101001.25;5086083;28;20272;-64
2021/07/03 10:24:22;;;;;;;3.03;1.80;;;;;;;25.82;42.72;101067.31;5086531;28;20185;-64
2021/07/03 10:26:51;;;;;;;4.63;1.97;;;;;;;25.79;44.30;101065.53;5078500;28;20229;-64
2021/07/03 10:29:22;;;;;;;10.97;2.40;;;;;;;24.43;44.04;100935.25;5089530;28;20241;-63
2021/07/03 10:31:50;;;;;;;2.87;1.93;;;;;;;24.96;45.58;101026.25;5079383;28;20214;-64
2021/07/03 10:34:32;;;;;;;3.17;1.90;;;;;;;25.50;44.19;101052.84;5071334;28;20310;-64
2021/07/03 10:37:02;;;;;;;4.33;1.73;;;;;;;25.73;45.45;101061.94;5077755;28;20188;-64
2021/07/03 10:39:32;;;;;;;3.60;2.00;;;;;;;25.81;45.13;101011.84;5075386;28;20179;-64
2021/07/03 10:41:58;;;;;;;4.57;1.70;;;;;;;26.26;43.19;101058.47;5081681;28;20183;-64
2021/07/03 10:44:36;;;;;;;3.23;1.87;;;;;;;26.18;42.79;101058.28;5047034;28;20183;-64
2021/07/03 10:47:09;;;;;;;3.67;2.07;;;;;;;25.93;42.99;100960.13;5077895;28;20713;-65
2021/07/03 10:49:37;;;;;;;4.70;2.03;;;;;;;26.61;42.75;101035.66;5079710;28;20210;-65
2021/07/03 10:52:23;;;;;;;4.17;1.67;;;;;;;26.40;43.19;101049.53;5077063;28;20615;-64
2021/07/03 10:54:48;;;;;;;4.07;1.67;;;;;;;26.64;43.33;101043.88;5071259;28;20214;-64
2021/07/03 10:57:26;;;;;;;4.97;2.10;;;;;;;26.82;42.96;101048.84;5081338;28;20194;-65
2021/07/03 11:00:04;;;;;;;2.17;1.77;;;;;;;26.84;42.78;101046.25;5075519;28;20193;-64
2021/07/03 11:02:31;;;;;;;3.20;1.83;;;;;;;26.95;42.69;101053.84;5078526;28;20281;-65
2021/07/03 11:05:01;;;;;;;3.20;2.20;;;;;;;26.47;42.16;101042.50;5079268;28;20175;-63
2021/07/03 11:07:32;;;;;;;3.70;2.03;;;;;;;26.34;43.63;101034.63;5085874;28;20187;-64
2021/07/03 11:10:08;;;;;;;3.00;2.00;;;;;;;26.57;43.33;101043.72;5069074;28;20190;-64
2021/07/03 11:12:54;;;;;;;2.87;1.80;;;;;;;26.73;43.14;101032.16;5075644;28;20211;-65
2021/07/03 11:15:29;;;;;;;5.77;2.10;;;;;;;26.99;41.92;101023.81;5078606;28;20211;-64
2021/07/03 11:17:56;;;;;;;4.33;2.33;;;;;;;27.06;41.01;101023.19;5083002;28;20175;-64
2021/07/03 11:20:25;;;;;;;3.90;2.10;;;;;;;27.39;40.83;101022.75;5079834;28;20334;-65
2021/07/03 11:22:52;;;;;;;3.50;2.40;;;;;;;26.64;41.93;100978.50;5079456;28;20179;-64